createdAt,value
2023-02-07T00:02:14.167Z,77.29
2023-02-07T00:04:40.885Z,77.16
2023-02-07T00:07:07.857Z,77.27
2023-02-07T00:09:37.487Z,77.24
2023-02-07T00:12:05.027Z,77.15
2023-02-07T00:14:31.881Z,77.16
2023-02-07T00:16:58.542Z,77.24
2023-02-07T00:19:25.202Z,77.06
2023-02-07T00:21:52.077Z,77.02
2023-02-07T00:24:18.730Z,76.88
2023-02-07T00:26:47.336Z,76.91
2023-02-07T00:29:14.627Z,76.91
2023-02-07T00:31:41.356Z,77.10
2023-02-07T00:34:08.491Z,76.95
2023-02-07T00:36:36.731Z,76.96
2023-02-07T00:39:06.811Z,76.92
2023-02-07T00:41:33.980Z,77.03
2023-02-07T00:44:00.966Z,76.81
2023-02-07T00:46:27.645Z,77.08
2023-02-07T00:48:54.669Z,77.13
2023-02-07T00:51:21.710Z,77.27
2023-02-07T00:53:48.595Z,77.45
2023-02-07T00:56:16.077Z,77.36
2023-02-07T00:58:43.296Z,77.47
2023-02-07T01:01:10.100Z,77.67
2023-02-07T01:03:36.861Z,77.76
2023-02-07T01:06:04.038Z,77.51
2023-02-07T01:08:30.768Z,77.64
2023-02-07T01:11:01.559Z,77.79
2023-02-07T01:13:28.670Z,77.89
2023-02-07T01:15:55.477Z,77.96
2023-02-07T01:18:22.145Z,77.91
2023-02-07T01:20:49.260Z,78.15
2023-02-07T01:23:16.251Z,78.22
2023-02-07T01:25:44.274Z,78.25
2023-02-07T01:28:12.172Z,78.08
2023-02-07T01:30:40.240Z,78.42
2023-02-07T01:33:06.917Z,78.53
2023-02-07T01:35:33.800Z,78.36
2023-02-07T01:38:02.739Z,78.54
2023-02-07T01:40:30.583Z,78.49
2023-02-07T01:42:58.005Z,78.57
2023-02-07T01:45:32.839Z,78.73
2023-02-07T01:48:03.776Z,78.61
2023-02-07T01:50:30.945Z,78.88
2023-02-07T01:53:00.539Z,78.93
2023-02-07T01:55:31.985Z,78.86
2023-02-07T01:58:00.771Z,78.82
2023-02-07T02:00:27.537Z,78.84
2023-02-07T02:02:54.426Z,78.96
2023-02-07T02:05:22.272Z,78.88
2023-02-07T02:07:49.053Z,78.96
2023-02-07T02:10:22.246Z,78.95
2023-02-07T02:12:48.839Z,79.18
2023-02-07T02:15:21.612Z,79.18
2023-02-07T02:17:57.716Z,78.95
2023-02-07T02:20:49.177Z,79.18
2023-02-07T02:23:30.640Z,79.18
2023-02-07T02:26:22.026Z,79.19
2023-02-07T02:29:16.671Z,79.24
2023-02-07T02:31:49.272Z,79.17
2023-02-07T02:34:44.591Z,78.87
2023-02-07T02:37:31.461Z,79.01
2023-02-07T02:40:18.150Z,79.01
2023-02-07T02:42:53.298Z,78.91
2023-02-07T02:45:32.955Z,78.78
2023-02-07T02:48:02.234Z,78.90
2023-02-07T02:50:30.724Z,78.72
2023-02-07T02:52:57.871Z,78.77
2023-02-07T02:56:03.720Z,78.70
2023-02-07T02:58:59.156Z,78.86
2023-02-07T03:02:04.221Z,78.68
2023-02-07T03:04:42.922Z,78.84
2023-02-07T03:07:44.823Z,78.94
2023-02-07T03:10:39.034Z,78.68
2023-02-07T03:14:03.760Z,78.79
2023-02-07T03:16:51.061Z,78.88
2023-02-07T03:19:43.213Z,78.81
2023-02-07T03:22:14.475Z,78.65
2023-02-07T03:24:52.318Z,78.63
2023-02-07T03:27:22.568Z,78.65
2023-02-07T03:29:57.761Z,78.52
2023-02-07T03:32:33.928Z,78.50
2023-02-07T03:35:06.605Z,78.51
2023-02-07T03:37:38.876Z,78.73
2023-02-07T03:40:07.140Z,78.71
2023-02-07T03:42:40.415Z,78.77
2023-02-07T03:45:12.027Z,78.67
2023-02-07T03:47:38.688Z,78.74
2023-02-07T03:50:06.039Z,78.63
2023-02-07T03:52:32.788Z,78.77
2023-02-07T03:54:59.448Z,78.68
2023-02-07T03:57:26.431Z,78.78
2023-02-07T03:59:53.201Z,78.58
2023-02-07T04:02:20.020Z,78.62
2023-02-07T04:04:47.116Z,78.55
2023-02-07T04:07:14.056Z,78.74
2023-02-07T04:09:40.757Z,78.51
2023-02-07T04:12:07.901Z,78.50
2023-02-07T04:14:34.686Z,78.52
2023-02-07T04:17:01.380Z,78.65
2023-02-07T04:19:28.217Z,78.46
2023-02-07T04:21:54.935Z,78.49
2023-02-07T04:24:21.598Z,78.55
2023-02-07T04:26:48.597Z,78.65
2023-02-07T04:29:15.392Z,78.45
2023-02-07T04:31:42.661Z,78.46
2023-02-07T04:34:13.205Z,78.69
2023-02-07T04:36:40.178Z,78.55
2023-02-07T04:39:06.989Z,78.59
2023-02-07T04:41:33.850Z,78.59
2023-02-07T04:44:00.557Z,78.27
2023-02-07T04:46:28.630Z,78.32
2023-02-07T04:48:55.477Z,78.46
2023-02-07T04:51:22.230Z,78.10
2023-02-07T04:53:48.931Z,78.21
2023-02-07T04:56:15.816Z,78.29
2023-02-07T04:58:42.543Z,78.32
2023-02-07T05:01:09.740Z,78.01
2023-02-07T05:03:36.545Z,77.98
2023-02-07T05:06:03.433Z,77.99
2023-02-07T05:08:30.165Z,78.09
2023-02-07T05:10:57.692Z,78.16
2023-02-07T05:13:25.175Z,78.03
2023-02-07T05:15:52.070Z,78.07
2023-02-07T05:18:19.382Z,78.15
2023-02-07T05:20:46.124Z,78.12
2023-02-07T05:23:13.109Z,78.21
2023-02-07T05:25:44.378Z,78.44
2023-02-07T05:28:11.487Z,78.46
2023-02-07T05:30:38.256Z,78.35
2023-02-07T05:33:05.281Z,78.39
2023-02-07T05:35:39.563Z,78.46
2023-02-07T05:38:09.334Z,78.21
2023-02-07T05:40:39.383Z,78.26
2023-02-07T05:43:06.559Z,78.35
2023-02-07T05:45:33.836Z,78.27
2023-02-07T05:48:00.552Z,78.22
2023-02-07T05:50:27.476Z,78.08
2023-02-07T05:52:54.384Z,77.94
2023-02-07T05:55:21.481Z,78.10
2023-02-07T05:57:48.250Z,77.82
2023-02-07T06:00:17.851Z,77.92
2023-02-07T06:02:44.735Z,78.06
2023-02-07T06:05:16.237Z,77.83
2023-02-07T06:07:44.523Z,77.72
2023-02-07T06:10:12.076Z,77.80
2023-02-07T06:12:39.293Z,77.53
2023-02-07T06:15:06.650Z,77.64
2023-02-07T06:17:33.400Z,77.38
2023-02-07T06:20:00.176Z,77.42
2023-02-07T06:22:27.193Z,77.29
2023-02-07T06:24:53.997Z,77.57
2023-02-07T06:27:21.224Z,77.32
2023-02-07T06:29:56.281Z,77.28
2023-02-07T06:32:22.968Z,77.03
2023-02-07T06:34:49.668Z,77.12
2023-02-07T06:37:16.674Z,76.84
2023-02-07T06:40:43.162Z,76.65
2023-02-07T06:44:09.874Z,76.77
2023-02-07T06:47:36.303Z,76.50
2023-02-07T06:51:03.332Z,76.58
2023-02-07T06:57:24.202Z,76.45
2023-02-07T06:59:50.884Z,76.35
2023-02-07T07:02:17.556Z,76.32
2023-02-07T07:04:44.604Z,76.22
2023-02-07T07:07:11.428Z,76.12
2023-02-07T07:09:38.082Z,76.12
2023-02-07T07:12:05.092Z,75.93
2023-02-07T07:14:32.770Z,76.36
2023-02-07T07:16:59.500Z,75.92
2023-02-07T07:19:26.294Z,76.28
2023-02-07T07:21:53.145Z,75.95
2023-02-07T07:24:19.843Z,76.05
2023-02-07T07:26:49.872Z,76.25
2023-02-07T07:29:18.299Z,76.21
2023-02-07T07:31:45.633Z,76.50
2023-02-07T07:34:12.964Z,76.33
2023-02-07T07:36:40.020Z,76.35
2023-02-07T07:39:08.630Z,76.56
2023-02-07T07:41:35.465Z,76.72
2023-02-07T07:44:02.937Z,76.82
2023-02-07T07:46:30.003Z,76.72
2023-02-07T07:48:56.912Z,76.92
2023-02-07T07:51:23.736Z,76.97
2023-02-07T07:53:50.376Z,76.97
2023-02-07T07:56:17.263Z,77.13
2023-02-07T07:58:44.101Z,77.10
2023-02-07T08:01:10.879Z,77.16
2023-02-07T08:03:37.836Z,77.31
2023-02-07T08:06:04.953Z,77.43
2023-02-07T08:08:31.712Z,77.51
2023-02-07T08:11:02.949Z,77.75
2023-02-07T08:13:32.417Z,77.86
2023-02-07T08:16:01.305Z,77.86
2023-02-07T08:18:29.294Z,77.98
2023-02-07T08:20:56.670Z,78.20
2023-02-07T08:23:23.387Z,78.25
2023-02-07T08:25:50.538Z,78.58
2023-02-07T08:28:17.519Z,78.51
2023-02-07T08:30:45.782Z,78.53
2023-02-07T08:33:12.762Z,78.79
2023-02-07T08:35:39.649Z,78.78
2023-02-07T08:38:06.765Z,78.63
2023-02-07T08:40:34.016Z,78.52
2023-02-07T08:43:01.075Z,78.70
2023-02-07T08:45:28.203Z,78.62
2023-02-07T08:47:55.265Z,78.43
2023-02-07T08:50:22.135Z,78.50
2023-02-07T08:52:48.946Z,78.45
2023-02-07T08:55:15.738Z,78.36
2023-02-07T08:57:42.483Z,78.19
2023-02-07T09:00:09.987Z,78.08
2023-02-07T09:02:36.972Z,78.23
2023-02-07T09:05:03.772Z,77.83
2023-02-07T09:07:31.948Z,77.84
2023-02-07T09:09:58.863Z,77.83
2023-02-07T09:12:25.941Z,77.69
2023-02-07T09:14:52.618Z,77.37
2023-02-07T09:17:19.444Z,77.21
2023-02-07T09:19:46.202Z,77.40
2023-02-07T09:22:13.117Z,77.08
2023-02-07T09:24:39.851Z,77.06
2023-02-07T09:27:06.718Z,76.53
2023-02-07T09:29:33.681Z,76.79
2023-02-07T09:32:00.628Z,76.40
2023-02-07T09:34:27.778Z,76.16
2023-02-07T09:36:54.727Z,76.17
2023-02-07T09:39:21.590Z,76.22
2023-02-07T09:42:09.022Z,76.04
2023-02-07T09:44:52.476Z,75.87
2023-02-07T09:47:24.828Z,75.79
2023-02-07T09:50:12.868Z,75.60
2023-02-07T09:52:49.514Z,75.38
2023-02-07T09:55:38.496Z,75.15
2023-02-07T09:58:14.842Z,75.01
2023-02-07T10:00:45.669Z,75.14
2023-02-07T10:03:19.874Z,75.11
2023-02-07T10:05:54.048Z,74.72
2023-02-07T10:08:22.073Z,74.85
2023-02-07T10:11:20.817Z,74.78
2023-02-07T10:14:05.513Z,74.42
2023-02-07T10:16:43.743Z,74.49
2023-02-07T10:19:29.557Z,74.45
2023-02-07T10:22:14.261Z,74.70
2023-02-07T10:24:53.192Z,74.24
2023-02-07T10:27:45.968Z,74.39
2023-02-07T10:30:25.536Z,74.35
2023-02-07T10:32:53.752Z,74.47
2023-02-07T10:35:25.304Z,74.31
2023-02-07T10:37:57.707Z,74.54
2023-02-07T10:40:47.499Z,74.52
2023-02-07T10:43:32.958Z,74.25
2023-02-07T10:46:10.519Z,74.40
2023-02-07T10:48:38.529Z,74.22
2023-02-07T10:51:21.192Z,74.05
2023-02-07T10:54:03.183Z,74.03
2023-02-07T10:56:32.031Z,73.51
2023-02-07T10:58:59.609Z,73.61
2023-02-07T11:01:31.166Z,73.10
2023-02-07T11:03:58.521Z,72.92
2023-02-07T11:06:30.459Z,73.06
2023-02-07T11:09:16.275Z,72.92
2023-02-07T11:11:50.933Z,72.63
2023-02-07T11:14:26.403Z,72.13
2023-02-07T11:16:54.977Z,72.31
2023-02-07T11:19:30.854Z,71.84
2023-02-07T11:22:15.101Z,71.92
2023-02-07T11:24:42.720Z,71.49
2023-02-07T11:27:40.516Z,71.42
2023-02-07T11:30:18.232Z,71.05
2023-02-07T11:32:54.628Z,70.98
2023-02-07T11:35:21.695Z,70.70
2023-02-07T11:38:00.163Z,70.54
2023-02-07T11:40:38.246Z,70.39
2023-02-07T11:43:18.488Z,70.52
2023-02-07T11:45:48.793Z,70.17
2023-02-07T11:48:19.897Z,70.19
2023-02-07T11:50:52.810Z,70.31
2023-02-07T11:53:24.792Z,69.94
2023-02-07T11:55:54.569Z,70.08
2023-02-07T11:58:39.920Z,69.92
2023-02-07T12:01:08.307Z,69.98
2023-02-07T12:03:42.888Z,69.81
2023-02-07T12:06:16.384Z,69.57
2023-02-07T12:08:44.368Z,69.78
2023-02-07T12:11:25.895Z,69.48
2023-02-07T12:14:02.166Z,69.46
2023-02-07T12:16:32.596Z,69.63
2023-02-07T12:19:10.638Z,69.21
2023-02-07T12:21:55.174Z,69.16
2023-02-07T12:24:55.050Z,69.18
2023-02-07T12:27:29.431Z,69.00
2023-02-07T12:30:14.029Z,68.78
2023-02-07T12:33:12.854Z,68.79
2023-02-07T12:35:57.014Z,68.50
2023-02-07T12:38:38.390Z,68.27
2023-02-07T12:41:19.430Z,68.01
2023-02-07T12:44:02.171Z,68.10
2023-02-07T12:46:47.260Z,67.92
2023-02-07T12:49:28.670Z,67.39
2023-02-07T12:52:10.278Z,67.23
2023-02-07T12:54:55.357Z,66.64
2023-02-07T12:57:43.782Z,66.23
2023-02-07T13:00:19.521Z,65.90
2023-02-07T13:03:22.880Z,65.69
2023-02-07T13:05:52.264Z,65.26
2023-02-07T13:08:34.304Z,65.08
2023-02-07T13:11:07.211Z,64.83
2023-02-07T13:13:52.776Z,64.56
2023-02-07T13:16:29.824Z,64.67
2023-02-07T13:19:55.197Z,64.63
2023-02-07T13:22:36.813Z,64.48
2023-02-07T13:25:09.642Z,64.64
2023-02-07T13:27:36.811Z,64.39
2023-02-07T13:30:03.995Z,64.77
2023-02-07T13:32:31.058Z,64.70
2023-02-07T13:35:32.144Z,64.50
2023-02-07T13:38:14.834Z,64.72
2023-02-07T13:40:59.091Z,64.84
2023-02-07T13:44:09.419Z,65.31
2023-02-07T13:47:00.874Z,65.08
2023-02-07T13:49:42.809Z,65.37
2023-02-07T13:52:12.531Z,65.40
2023-02-07T13:55:04.321Z,65.79
2023-02-07T13:58:00.930Z,66.01
2023-02-07T14:00:35.972Z,65.83
2023-02-07T14:03:06.755Z,65.92
2023-02-07T14:05:43.967Z,65.75
2023-02-07T14:08:16.903Z,66.26
2023-02-07T14:10:53.389Z,66.41
2023-02-07T14:13:40.328Z,66.39
2023-02-07T14:16:09.320Z,66.67
2023-02-07T14:18:41.593Z,66.86
2023-02-07T14:21:08.220Z,66.89
2023-02-07T14:24:05.193Z,66.80
2023-02-07T14:26:37.641Z,67.07
2023-02-07T14:29:27.293Z,67.08
2023-02-07T14:31:55.129Z,67.42
2023-02-07T14:34:25.034Z,67.48
2023-02-07T14:36:55.109Z,67.13
2023-02-07T14:39:31.543Z,67.56
2023-02-07T14:42:12.179Z,67.48
2023-02-07T14:44:42.208Z,67.67
2023-02-07T14:47:20.714Z,67.29
2023-02-07T14:49:53.544Z,67.54
2023-02-07T14:52:25.476Z,67.37
2023-02-07T14:55:02.948Z,67.42
2023-02-07T14:57:56.659Z,67.52
2023-02-07T15:00:45.144Z,67.59
2023-02-07T15:03:18.022Z,67.74
2023-02-07T15:05:56.929Z,67.68
2023-02-07T15:08:25.622Z,67.60
2023-02-07T15:10:56.632Z,67.55
2023-02-07T15:13:29.116Z,67.74
2023-02-07T15:15:57.659Z,67.85
2023-02-07T15:18:27.388Z,67.71
2023-02-07T15:20:58.503Z,67.64
2023-02-07T15:23:29.262Z,67.80
2023-02-07T15:25:56.578Z,67.70
2023-02-07T15:28:29.251Z,67.78
2023-02-07T15:31:11.673Z,67.69
2023-02-07T15:33:48.582Z,67.95
2023-02-07T15:36:40.845Z,68.11
2023-02-07T15:39:19.113Z,67.80
2023-02-07T15:41:47.345Z,68.20
2023-02-07T15:44:21.831Z,68.29
2023-02-07T15:46:58.311Z,68.27
2023-02-07T15:49:28.818Z,68.44
2023-02-07T15:52:03.439Z,68.40
2023-02-07T15:54:34.905Z,68.55
2023-02-07T15:57:01.684Z,68.27
2023-02-07T15:59:31.750Z,68.76
2023-02-07T16:02:01.546Z,68.71
2023-02-07T16:04:32.084Z,68.76
2023-02-07T16:07:03.546Z,69.07
2023-02-07T16:09:42.483Z,69.10
2023-02-07T16:12:27.872Z,68.80
2023-02-07T16:14:54.587Z,68.88
2023-02-07T16:17:36.261Z,69.02
2023-02-07T16:20:03.237Z,69.18
2023-02-07T16:22:31.639Z,69.09
2023-02-07T16:25:02.559Z,69.44
2023-02-07T16:27:31.938Z,69.58
2023-02-07T16:29:59.970Z,69.52
2023-02-07T16:32:32.613Z,69.29
2023-02-07T16:35:00.452Z,69.83
2023-02-07T16:37:28.402Z,69.92
2023-02-07T16:39:55.429Z,69.86
2023-02-07T16:42:22.242Z,70.02
2023-02-07T16:44:49.069Z,69.76
2023-02-07T16:47:17.787Z,70.33
2023-02-07T16:49:45.780Z,70.13
2023-02-07T16:52:12.528Z,70.25
2023-02-07T16:54:39.537Z,70.61
2023-02-07T16:57:06.509Z,70.85
2023-02-07T16:59:33.233Z,70.91
2023-02-07T17:02:00.301Z,70.99
2023-02-07T17:04:27.025Z,71.13
2023-02-07T17:06:53.862Z,71.23
2023-02-07T17:09:25.090Z,71.24
2023-02-07T17:11:55.271Z,71.39
2023-02-07T17:14:22.454Z,71.62
2023-02-07T17:16:49.393Z,72.02
2023-02-07T17:19:23.878Z,72.17
2023-02-07T17:21:52.314Z,72.09
2023-02-07T17:24:19.662Z,72.17
2023-02-07T17:26:54.710Z,72.13
2023-02-07T17:29:22.315Z,72.43
2023-02-07T17:31:49.403Z,72.54
2023-02-07T17:34:16.618Z,72.66
2023-02-07T17:36:48.585Z,72.58
2023-02-07T17:39:17.330Z,72.65
2023-02-07T17:41:44.182Z,72.98
2023-02-07T17:44:11.042Z,73.31
2023-02-07T17:46:38.480Z,73.46
2023-02-07T17:49:12.769Z,73.62
2023-02-07T17:51:39.653Z,73.57
2023-02-07T17:54:06.593Z,73.85
2023-02-07T17:56:33.804Z,73.83
2023-02-07T17:59:04.071Z,74.22
2023-02-07T18:01:31.804Z,74.06
2023-02-07T18:03:59.075Z,74.32
2023-02-07T18:06:28.949Z,74.36
2023-02-07T18:08:58.795Z,74.27
2023-02-07T18:11:27.286Z,74.50
2023-02-07T18:13:54.618Z,74.59
2023-02-07T18:16:24.075Z,74.55
2023-02-07T18:18:52.382Z,74.95
2023-02-07T18:21:19.469Z,75.06
2023-02-07T18:23:46.435Z,74.92
2023-02-07T18:26:19.298Z,74.95
2023-02-07T18:28:46.650Z,75.16
2023-02-07T18:31:24.546Z,75.46
2023-02-07T18:33:53.091Z,75.55
2023-02-07T18:36:21.710Z,75.66
2023-02-07T18:38:48.396Z,75.94
2023-02-07T18:41:21.162Z,75.92
2023-02-07T18:43:48.963Z,76.44
2023-02-07T18:46:18.133Z,76.78
2023-02-07T18:48:46.023Z,76.65
2023-02-07T18:51:15.292Z,77.09
2023-02-07T18:53:43.078Z,77.34
2023-02-07T18:56:21.453Z,77.50
2023-02-07T18:58:48.940Z,77.72
2023-02-07T19:01:20.744Z,77.94
2023-02-07T19:03:54.366Z,77.89
2023-02-07T19:06:31.553Z,78.39
2023-02-07T19:08:58.796Z,78.57
2023-02-07T19:11:26.598Z,78.43
2023-02-07T19:13:53.749Z,78.71
2023-02-07T19:16:23.872Z,78.60
2023-02-07T19:18:50.697Z,78.95
2023-02-07T19:21:21.731Z,79.10
2023-02-07T19:23:48.575Z,79.30
2023-02-07T19:26:15.471Z,79.13
2023-02-07T19:28:42.376Z,79.55
2023-02-07T19:31:17.958Z,79.30
2023-02-07T19:33:45.477Z,79.60
2023-02-07T19:36:13.195Z,79.67
2023-02-07T19:38:40.284Z,79.63
2023-02-07T19:41:08.076Z,79.96
2023-02-07T19:43:36.172Z,79.92
2023-02-07T19:46:03.424Z,79.91
2023-02-07T19:48:30.241Z,79.99
2023-02-07T19:51:01.751Z,79.97
2023-02-07T19:53:29.656Z,80.27
2023-02-07T19:56:04.492Z,80.32
2023-02-07T19:58:33.404Z,80.31
2023-02-07T20:01:00.757Z,80.37
2023-02-07T20:03:28.257Z,80.45
2023-02-07T20:05:55.197Z,80.64
2023-02-07T20:08:22.129Z,80.50
2023-02-07T20:10:48.995Z,80.62
2023-02-07T20:13:16.304Z,80.89
2023-02-07T20:15:45.783Z,80.88
2023-02-07T20:18:13.815Z,81.06
2023-02-07T20:20:48.201Z,81.21
2023-02-07T20:23:15.160Z,81.40
2023-02-07T20:25:42.150Z,81.37
2023-02-07T20:28:09.562Z,81.44
2023-02-07T20:30:42.750Z,81.61
2023-02-07T20:33:09.481Z,81.67
2023-02-07T20:35:39.581Z,81.71
2023-02-07T20:38:06.361Z,81.62
2023-02-07T20:40:33.266Z,81.70
2023-02-07T20:43:00.113Z,81.83
2023-02-07T20:45:26.768Z,81.89
2023-02-07T20:47:53.454Z,81.94
2023-02-07T20:50:20.223Z,82.23
2023-02-07T20:52:46.854Z,82.05
2023-02-07T20:55:14.400Z,82.09
2023-02-07T20:57:41.214Z,82.34
2023-02-07T21:00:08.947Z,82.11
2023-02-07T21:02:36.762Z,82.14
2023-02-07T21:05:03.678Z,82.28
2023-02-07T21:07:30.384Z,82.21
2023-02-07T21:09:57.415Z,82.01
2023-02-07T21:12:24.308Z,82.15
2023-02-07T21:14:51.003Z,82.00
2023-02-07T21:17:18.286Z,81.97
2023-02-07T21:19:45.249Z,81.83
2023-02-07T21:22:11.909Z,81.87
2023-02-07T21:24:38.822Z,81.96
2023-02-07T21:27:06.210Z,81.91
2023-02-07T21:29:34.225Z,81.81
2023-02-07T21:32:01.247Z,81.93
2023-02-07T21:34:28.126Z,81.83
2023-02-07T21:36:55.503Z,81.94
2023-02-07T21:39:24.407Z,82.10
2023-02-07T21:41:51.568Z,82.23
2023-02-07T21:44:21.229Z,82.04
2023-02-07T21:46:52.515Z,82.22
2023-02-07T21:49:20.952Z,82.18
2023-02-07T21:51:49.260Z,82.44
2023-02-07T21:54:16.516Z,82.22
2023-02-07T21:56:44.212Z,82.58
2023-02-07T21:59:16.737Z,82.53
2023-02-07T22:01:44.764Z,82.63
2023-02-07T22:04:12.095Z,82.67
2023-02-07T22:06:42.336Z,82.77
2023-02-07T22:09:11.943Z,82.91
2023-02-07T22:11:38.726Z,82.79
2023-02-07T22:14:05.781Z,82.80
2023-02-07T22:16:34.472Z,82.91
2023-02-07T22:19:04.617Z,83.04
2023-02-07T22:21:34.101Z,83.22
2023-02-07T22:24:02.030Z,83.18
2023-02-07T22:26:29.269Z,83.05
2023-02-07T22:28:56.879Z,83.29
2023-02-07T22:31:29.524Z,83.20
2023-02-07T22:34:00.598Z,83.38
2023-02-07T22:36:29.347Z,83.35
2023-02-07T22:38:57.941Z,83.08
2023-02-07T22:41:24.829Z,83.32
2023-02-07T22:43:51.636Z,83.32
2023-02-07T22:46:20.460Z,83.30
2023-02-07T22:48:49.471Z,83.34
2023-02-07T22:51:23.122Z,83.25
2023-02-07T22:53:52.619Z,83.23
2023-02-07T22:56:19.365Z,83.27
2023-02-07T22:58:49.542Z,83.22
2023-02-07T23:01:28.848Z,83.15
2023-02-07T23:03:57.491Z,83.17
2023-02-07T23:06:25.847Z,83.10
2023-02-07T23:08:53.521Z,83.07
2023-02-07T23:11:22.540Z,82.95
2023-02-07T23:13:49.495Z,82.83
2023-02-07T23:16:22.866Z,82.82
2023-02-07T23:18:51.991Z,82.68
2023-02-07T23:21:20.896Z,82.50
2023-02-07T23:23:48.035Z,82.43
2023-02-07T23:26:17.445Z,82.38
2023-02-07T23:28:45.091Z,82.23
2023-02-07T23:31:14.728Z,82.22
2023-02-07T23:33:42.142Z,82.21
2023-02-07T23:36:09.861Z,82.23
2023-02-07T23:38:37.276Z,82.28
2023-02-07T23:41:05.443Z,82.22
2023-02-07T23:43:32.095Z,82.05
2023-02-07T23:45:58.866Z,82.14
2023-02-07T23:48:25.972Z,82.07
2023-02-07T23:50:58.421Z,82.12
2023-02-07T23:53:25.698Z,82.10
2023-02-07T23:55:55.705Z,81.79
2023-02-07T23:58:24.027Z,81.84
